sensor_id;sensor_type;location;lat;lon;timestamp;pressure;altitude;pressure_sealevel;temperature;humidity
32452;BME280;45528;52.102;5.242;2023-05-18T00:00:50;102506.0;;;12.57;53.45
32452;BME280;45528;52.102;5.242;2023-05-18T00:02:26;102505.0;;;12.53;53.68
32452;BME280;45528;52.102;5.242;2023-05-18T00:05:38;102507.0;;;12.53;53.86
32452;BME280;45528;52.102;5.242;2023-05-18T00:07:15;102506.0;;;12.43;53.85
32452;BME280;45528;52.102;5.242;2023-05-18T00:08:51;102504.0;;;12.37;54.03
32452;BME280;45528;52.102;5.242;2023-05-18T00:10:27;102501.0;;;12.41;54.19
32452;BME280;45528;52.102;5.242;2023-05-18T00:13:41;102503.0;;;12.43;54.08
32452;BME280;45528;52.102;5.242;2023-05-18T00:15:18;102502.0;;;12.44;53.83
32452;BME280;45528;52.102;5.242;2023-05-18T00:16:54;102505.0;;;12.37;54.08
32452;BME280;45528;52.102;5.242;2023-05-18T00:20:07;102501.0;;;12.34;53.96
32452;BME280;45528;52.102;5.242;2023-05-18T00:21:44;102515.00000000001;;;12.26;53.98
32452;BME280;45528;52.102;5.242;2023-05-18T00:23:20;102509.99999999999;;;12.12;54.38
32452;BME280;45528;52.102;5.242;2023-05-18T00:26:33;102508.0;;;12.14;54.43
32452;BME280;45528;52.102;5.242;2023-05-18T00:28:09;102508.99999999999;;;12.12;54.46
32452;BME280;45528;52.102;5.242;2023-05-18T00:29:45;102513.00000000001;;;12.09;54.81
32452;BME280;45528;52.102;5.242;2023-05-18T00:31:21;102513.00000000001;;;12.11;54.52
32452;BME280;45528;52.102;5.242;2023-05-18T00:34:33;102514.00000000001;;;12.1;54.58
32452;BME280;45528;52.102;5.242;2023-05-18T00:36:10;102508.99999999999;;;12.08;54.39
32452;BME280;45528;52.102;5.242;2023-05-18T00:37:46;102513.00000000001;;;12.06;54.53
32452;BME280;45528;52.102;5.242;2023-05-18T00:40:58;102513.00000000001;;;12.12;54.54
32452;BME280;45528;52.102;5.242;2023-05-18T00:42:34;102517.0;;;12.04;54.81
32452;BME280;45528;52.102;5.242;2023-05-18T00:44:10;102518.0;;;11.95;55.27
32452;BME280;45528;52.102;5.242;2023-05-18T00:47:23;102516.00000000001;;;11.97;55.09
32452;BME280;45528;52.102;5.242;2023-05-18T00:48:59;102518.0;;;12.09;54.48
32452;BME280;45528;52.102;5.242;2023-05-18T00:50:35;102518.0;;;12.09;54.8
32452;BME280;45528;52.102;5.242;2023-05-18T00:53:49;102522.0;;;12.08;54.72
32452;BME280;45528;52.102;5.242;2023-05-18T00:55:26;102522.0;;;11.94;54.96
32452;BME280;45528;52.102;5.242;2023-05-18T00:57:04;102517.0;;;11.87;55.43
32452;BME280;45528;52.102;5.242;2023-05-18T00:58:41;102515.00000000001;;;11.82;55.44
32452;BME280;45528;52.102;5.242;2023-05-18T01:01:53;102514.00000000001;;;11.89;55.53
32452;BME280;45528;52.102;5.242;2023-05-18T01:03:31;102519.0;;;11.92;55.32
32452;BME280;45528;52.102;5.242;2023-05-18T01:05:08;102514.00000000001;;;11.79;55.48
32452;BME280;45528;52.102;5.242;2023-05-18T01:08:21;102517.0;;;11.85;55.07
32452;BME280;45528;52.102;5.242;2023-05-18T01:09:57;102517.0;;;11.9;54.94
32452;BME280;45528;52.102;5.242;2023-05-18T01:11:42;102517.0;;;11.95;54.9
32452;BME280;45528;52.102;5.242;2023-05-18T01:13:32;102517.0;;;12.01;54.83
32452;BME280;45528;52.102;5.242;2023-05-18T01:15:22;102517.0;;;11.91;55.19
32452;BME280;45528;52.102;5.242;2023-05-18T01:18:51;102513.00000000001;;;11.82;55.63
32452;BME280;45528;52.102;5.242;2023-05-18T01:20:34;102515.00000000001;;;11.89;55.41
32452;BME280;45528;52.102;5.242;2023-05-18T01:22:16;102514.00000000001;;;11.79;55.47
32452;BME280;45528;52.102;5.242;2023-05-18T01:24:19;102516.00000000001;;;12.02;55.04
32452;BME280;45528;52.102;5.242;2023-05-18T01:26:11;102519.0;;;12.14;54.49
32452;BME280;45528;52.102;5.242;2023-05-18T01:27:50;102521.0;;;12.19;54.45
32452;BME280;45528;52.102;5.242;2023-05-18T01:31:06;102521.0;;;12.13;54.62
32452;BME280;45528;52.102;5.242;2023-05-18T01:32:44;102518.0;;;12.08;54.88
32452;BME280;45528;52.102;5.242;2023-05-18T01:34:21;102520.0;;;12.09;54.67
32452;BME280;45528;52.102;5.242;2023-05-18T01:37:33;102519.0;;;11.98;55.03
32452;BME280;45528;52.102;5.242;2023-05-18T01:39:10;102521.0;;;11.96;55.23
32452;BME280;45528;52.102;5.242;2023-05-18T01:40:52;102520.0;;;11.83;55.45
32452;BME280;45528;52.102;5.242;2023-05-18T01:42:38;102524.0;;;11.75;55.6
32452;BME280;45528;52.102;5.242;2023-05-18T01:46:08;102524.0;;;11.78;55.85
32452;BME280;45528;52.102;5.242;2023-05-18T01:47:48;102525.0;;;11.85;55.52
32452;BME280;45528;52.102;5.242;2023-05-18T01:49:32;102530.0;;;11.81;55.62
32452;BME280;45528;52.102;5.242;2023-05-18T01:51:11;102528.0;;;11.86;55.6
32452;BME280;45528;52.102;5.242;2023-05-18T01:54:35;102528.0;;;11.9;55.13
32452;BME280;45528;52.102;5.242;2023-05-18T01:56:13;102526.0;;;11.87;55.83
32452;BME280;45528;52.102;5.242;2023-05-18T01:57:51;102532.0;;;11.85;55.55
32452;BME280;45528;52.102;5.242;2023-05-18T01:59:29;102529.0;;;11.85;55.52
32452;BME280;45528;52.102;5.242;2023-05-18T02:02:41;102527.0;;;11.85;55.53
32452;BME280;45528;52.102;5.242;2023-05-18T02:04:17;102526.0;;;11.9;55.19
32452;BME280;45528;52.102;5.242;2023-05-18T02:05:54;102522.0;;;11.93;55.2
32452;BME280;45528;52.102;5.242;2023-05-18T02:09:07;102519.0;;;12.02;55.03
32452;BME280;45528;52.102;5.242;2023-05-18T02:10:43;102522.0;;;11.91;55.56
32452;BME280;45528;52.102;5.242;2023-05-18T02:12:19;102515.00000000001;;;11.87;55.31
32452;BME280;45528;52.102;5.242;2023-05-18T02:13:55;102517.0;;;11.83;55.31
32452;BME280;45528;52.102;5.242;2023-05-18T02:17:07;102517.0;;;11.85;55.18
32452;BME280;45528;52.102;5.242;2023-05-18T02:18:43;102514.00000000001;;;11.89;55.03
32452;BME280;45528;52.102;5.242;2023-05-18T02:20:20;102515.00000000001;;;12.0;54.52
32452;BME280;45528;52.102;5.242;2023-05-18T02:23:32;102513.00000000001;;;11.9;54.95
32452;BME280;45528;52.102;5.242;2023-05-18T02:25:09;102511.99999999999;;;11.77;55.5
32452;BME280;45528;52.102;5.242;2023-05-18T02:26:45;102517.0;;;11.78;55.21
32452;BME280;45528;52.102;5.242;2023-05-18T02:29:58;102517.0;;;11.9;54.9
32452;BME280;45528;52.102;5.242;2023-05-18T02:31:34;102521.0;;;11.88;54.81
32452;BME280;45528;52.102;5.242;2023-05-18T02:33:10;102517.0;;;11.85;54.78
32452;BME280;45528;52.102;5.242;2023-05-18T02:36:26;102519.0;;;11.95;54.6
32452;BME280;45528;52.102;5.242;2023-05-18T02:38:03;102517.0;;;11.94;54.66
32452;BME280;45528;52.102;5.242;2023-05-18T02:39:40;102516.00000000001;;;11.86;55.03
32452;BME280;45528;52.102;5.242;2023-05-18T02:41:16;102517.0;;;11.91;54.58
32452;BME280;45528;52.102;5.242;2023-05-18T02:44:28;102517.0;;;11.86;55.01
32452;BME280;45528;52.102;5.242;2023-05-18T02:46:04;102508.99999999999;;;11.66;55.65
32452;BME280;45528;52.102;5.242;2023-05-18T02:47:41;102514.00000000001;;;11.69;55.96
32452;BME280;45528;52.102;5.242;2023-05-18T02:50:55;102513.00000000001;;;11.71;55.48
32452;BME280;45528;52.102;5.242;2023-05-18T02:52:31;102517.0;;;11.78;55.12
32452;BME280;45528;52.102;5.242;2023-05-18T02:54:08;102518.0;;;11.7;55.39
32452;BME280;45528;52.102;5.242;2023-05-18T02:55:44;102517.0;;;11.75;55.15
32452;BME280;45528;52.102;5.242;2023-05-18T02:58:56;102515.00000000001;;;11.79;54.89
32452;BME280;45528;52.102;5.242;2023-05-18T03:00:32;102516.00000000001;;;11.71;55.02
32452;BME280;45528;52.102;5.242;2023-05-18T03:02:09;102517.0;;;11.65;55.59
32452;BME280;45528;52.102;5.242;2023-05-18T03:05:21;102517.0;;;11.54;55.62
32452;BME280;45528;52.102;5.242;2023-05-18T03:06:57;102514.00000000001;;;11.56;55.66
32452;BME280;45528;52.102;5.242;2023-05-18T03:08:33;102508.99999999999;;;11.57;55.57
32452;BME280;45528;52.102;5.242;2023-05-18T03:11:46;102515.00000000001;;;11.62;55.44
32452;BME280;45528;52.102;5.242;2023-05-18T03:13:22;102515.00000000001;;;11.58;55.8
32452;BME280;45528;52.102;5.242;2023-05-18T03:14:58;102514.00000000001;;;11.48;55.92
32452;BME280;45528;52.102;5.242;2023-05-18T03:18:10;102506.0;;;11.37;56.04
32452;BME280;45528;52.102;5.242;2023-05-18T03:19:46;102508.99999999999;;;11.35;56.32
32452;BME280;45528;52.102;5.242;2023-05-18T03:21:23;102508.99999999999;;;11.32;56.39
32452;BME280;45528;52.102;5.242;2023-05-18T03:22:59;102511.99999999999;;;11.31;56.36
32452;BME280;45528;52.102;5.242;2023-05-18T03:26:11;102515.00000000001;;;11.33;56.46
32452;BME280;45528;52.102;5.242;2023-05-18T03:27:47;102518.0;;;11.29;56.39
32452;BME280;45528;52.102;5.242;2023-05-18T03:29:23;102513.00000000001;;;11.35;56.04
32452;BME280;45528;52.102;5.242;2023-05-18T03:32:36;102516.00000000001;;;11.29;56.22
32452;BME280;45528;52.102;5.242;2023-05-18T03:34:12;102515.00000000001;;;11.36;56.0
32452;BME280;45528;52.102;5.242;2023-05-18T03:35:48;102515.00000000001;;;11.4;55.87
32452;BME280;45528;52.102;5.242;2023-05-18T03:39:00;102511.99999999999;;;11.36;56.09
32452;BME280;45528;52.102;5.242;2023-05-18T03:40:36;102513.00000000001;;;11.4;55.63
32452;BME280;45528;52.102;5.242;2023-05-18T03:42:13;102515.00000000001;;;11.46;55.46
32452;BME280;45528;52.102;5.242;2023-05-18T03:45:25;102517.0;;;11.43;55.7
32452;BME280;45528;52.102;5.242;2023-05-18T03:47:01;102516.00000000001;;;11.38;55.9
32452;BME280;45528;52.102;5.242;2023-05-18T03:48:37;102517.0;;;11.33;56.2
32452;BME280;45528;52.102;5.242;2023-05-18T03:50:14;102518.0;;;11.41;55.8
32452;BME280;45528;52.102;5.242;2023-05-18T03:53:27;102518.0;;;11.43;55.55
32452;BME280;45528;52.102;5.242;2023-05-18T03:55:04;102522.0;;;11.44;55.48
32452;BME280;45528;52.102;5.242;2023-05-18T03:56:40;102522.0;;;11.43;55.9
32452;BME280;45528;52.102;5.242;2023-05-18T03:59:53;102526.0;;;11.4;55.42
32452;BME280;45528;52.102;5.242;2023-05-18T04:01:30;102522.0;;;11.41;55.52
32452;BME280;45528;52.102;5.242;2023-05-18T04:03:07;102525.0;;;11.38;55.62
32452;BME280;45528;52.102;5.242;2023-05-18T04:06:19;102524.0;;;11.44;55.54
32452;BME280;45528;52.102;5.242;2023-05-18T04:07:55;102525.0;;;11.46;55.56
32452;BME280;45528;52.102;5.242;2023-05-18T04:09:32;102526.0;;;11.49;55.06
32452;BME280;45528;52.102;5.242;2023-05-18T04:11:09;102524.0;;;11.41;55.31
32452;BME280;45528;52.102;5.242;2023-05-18T04:14:21;102523.0;;;11.33;55.79
32452;BME280;45528;52.102;5.242;2023-05-18T04:15:57;102528.0;;;11.31;55.77
32452;BME280;45528;52.102;5.242;2023-05-18T04:17:33;102525.0;;;11.36;55.61
32452;BME280;45528;52.102;5.242;2023-05-18T04:20:46;102525.0;;;11.35;55.71
32452;BME280;45528;52.102;5.242;2023-05-18T04:22:22;102531.0;;;11.41;55.33
32452;BME280;45528;52.102;5.242;2023-05-18T04:23:58;102533.0;;;11.56;55.02
32452;BME280;45528;52.102;5.242;2023-05-18T04:27:10;102536.99999999999;;;11.56;55.05
32452;BME280;45528;52.102;5.242;2023-05-18T04:28:46;102533.0;;;11.47;55.43
32452;BME280;45528;52.102;5.242;2023-05-18T04:30:25;102531.0;;;11.43;55.77
32452;BME280;45528;52.102;5.242;2023-05-18T04:32:02;102538.00000000001;;;11.52;55.24
32452;BME280;45528;52.102;5.242;2023-05-18T04:35:14;102541.00000000001;;;11.6;54.82
32452;BME280;45528;52.102;5.242;2023-05-18T04:36:51;102536.99999999999;;;11.59;54.85
32452;BME280;45528;52.102;5.242;2023-05-18T04:38:27;102541.00000000001;;;11.69;54.67
32452;BME280;45528;52.102;5.242;2023-05-18T04:41:42;102540.00000000001;;;11.67;54.95
32452;BME280;45528;52.102;5.242;2023-05-18T04:43:19;102542.0;;;11.75;55.02
32452;BME280;45528;52.102;5.242;2023-05-18T04:44:56;102541.00000000001;;;11.72;54.99
32452;BME280;45528;52.102;5.242;2023-05-18T04:48:08;102545.0;;;11.83;54.74
32452;BME280;45528;52.102;5.242;2023-05-18T04:49:44;102546.0;;;11.85;54.39
32452;BME280;45528;52.102;5.242;2023-05-18T04:51:21;102550.0;;;11.94;54.16
32452;BME280;45528;52.102;5.242;2023-05-18T04:52:57;102550.0;;;12.01;54.06
32452;BME280;45528;52.102;5.242;2023-05-18T04:56:09;102558.99999999999;;;12.17;53.61
32452;BME280;45528;52.102;5.242;2023-05-18T04:57:45;102564.00000000001;;;12.16;53.7
32452;BME280;45528;52.102;5.242;2023-05-18T04:59:22;102557.0;;;12.25;53.8
32452;BME280;45528;52.102;5.242;2023-05-18T05:02:35;102558.99999999999;;;12.32;53.66
32452;BME280;45528;52.102;5.242;2023-05-18T05:04:11;102564.00000000001;;;12.42;54.16
32452;BME280;45528;52.102;5.242;2023-05-18T05:05:48;102565.00000000001;;;12.54;53.75
32452;BME280;45528;52.102;5.242;2023-05-18T05:09:00;102564.00000000001;;;12.54;53.1
32452;BME280;45528;52.102;5.242;2023-05-18T05:10:37;102563.00000000001;;;12.81;51.65
32452;BME280;45528;52.102;5.242;2023-05-18T05:12:13;102565.00000000001;;;13.04;51.69
32452;BME280;45528;52.102;5.242;2023-05-18T05:13:49;102566.00000000001;;;12.98;51.66
32452;BME280;45528;52.102;5.242;2023-05-18T05:17:01;102566.00000000001;;;13.02;51.76
32452;BME280;45528;52.102;5.242;2023-05-18T05:18:37;102556.0;;;12.95;51.94
32452;BME280;45528;52.102;5.242;2023-05-18T05:20:14;102557.0;;;13.18;51.18
32452;BME280;45528;52.102;5.242;2023-05-18T05:23:26;102554.0;;;13.21;51.16
32452;BME280;45528;52.102;5.242;2023-05-18T05:25:02;102546.0;;;13.3;50.79
32452;BME280;45528;52.102;5.242;2023-05-18T05:26:39;102549.0;;;13.2;51.29
32452;BME280;45528;52.102;5.242;2023-05-18T05:29:52;102550.0;;;13.28;50.54
32452;BME280;45528;52.102;5.242;2023-05-18T05:31:28;102558.0;;;13.19;50.54
32452;BME280;45528;52.102;5.242;2023-05-18T05:33:04;102555.0;;;13.26;50.94
32452;BME280;45528;52.102;5.242;2023-05-18T05:36:16;102558.99999999999;;;13.34;51.03
32452;BME280;45528;52.102;5.242;2023-05-18T05:37:52;102556.0;;;13.29;50.02
32452;BME280;45528;52.102;5.242;2023-05-18T05:39:29;102557.0;;;13.66;49.16
32452;BME280;45528;52.102;5.242;2023-05-18T05:41:06;102554.0;;;13.81;49.59
32452;BME280;45528;52.102;5.242;2023-05-18T05:44:18;102553.0;;;13.64;48.9
32452;BME280;45528;52.102;5.242;2023-05-18T05:45:54;102553.0;;;13.82;47.62
32452;BME280;45528;52.102;5.242;2023-05-18T05:47:31;102557.0;;;13.7;47.98
32452;BME280;45528;52.102;5.242;2023-05-18T05:50:43;102561.99999999999;;;13.74;47.95
32452;BME280;45528;52.102;5.242;2023-05-18T05:52:19;102558.99999999999;;;13.74;48.01
32452;BME280;45528;52.102;5.242;2023-05-18T05:53:55;102558.0;;;13.74;47.83
32452;BME280;45528;52.102;5.242;2023-05-18T05:57:08;102558.0;;;13.91;47.87
32452;BME280;45528;52.102;5.242;2023-05-18T05:58:44;102558.99999999999;;;13.76;47.58
32452;BME280;45528;52.102;5.242;2023-05-18T06:00:20;102566.00000000001;;;13.77;48.28
32452;BME280;45528;52.102;5.242;2023-05-18T06:01:56;102557.0;;;13.89;47.48
32452;BME280;45528;52.102;5.242;2023-05-18T06:05:08;102563.00000000001;;;13.79;47.61
32452;BME280;45528;52.102;5.242;2023-05-18T06:06:46;102561.99999999999;;;14.05;46.84
32452;BME280;45528;52.102;5.242;2023-05-18T06:08:22;102567.0;;;14.2;46.63
32452;BME280;45528;52.102;5.242;2023-05-18T06:11:34;102565.00000000001;;;14.19;46.95
32452;BME280;45528;52.102;5.242;2023-05-18T06:13:10;102567.0;;;14.44;45.72
32452;BME280;45528;52.102;5.242;2023-05-18T06:14:46;102570.0;;;14.12;46.37
32452;BME280;45528;52.102;5.242;2023-05-18T06:18:00;102568.0;;;14.18;46.37
32452;BME280;45528;52.102;5.242;2023-05-18T06:19:36;102570.0;;;14.26;46.72
32452;BME280;45528;52.102;5.242;2023-05-18T06:21:12;102572.0;;;14.52;46.78
32452;BME280;45528;52.102;5.242;2023-05-18T06:24:24;102575.0;;;14.51;46.32
32452;BME280;45528;52.102;5.242;2023-05-18T06:26:00;102577.0;;;14.46;45.56
32452;BME280;45528;52.102;5.242;2023-05-18T06:27:36;102576.0;;;14.37;45.57
32452;BME280;45528;52.102;5.242;2023-05-18T06:29:13;102579.0;;;14.64;45.11
32452;BME280;45528;52.102;5.242;2023-05-18T06:32:25;102579.0;;;14.86;45.51
32452;BME280;45528;52.102;5.242;2023-05-18T06:34:02;102579.0;;;15.0;45.24
32452;BME280;45528;52.102;5.242;2023-05-18T06:35:38;102583.99999999999;;;15.16;44.4
32452;BME280;45528;52.102;5.242;2023-05-18T06:38:50;102580.0;;;15.18;44.48
32452;BME280;45528;52.102;5.242;2023-05-18T06:40:26;102580.0;;;15.48;44.66
32452;BME280;45528;52.102;5.242;2023-05-18T06:42:04;102582.0;;;15.36;43.68
32452;BME280;45528;52.102;5.242;2023-05-18T06:45:16;102582.0;;;15.53;44.08
32452;BME280;45528;52.102;5.242;2023-05-18T06:46:52;102591.00000000001;;;15.7;42.93
32452;BME280;45528;52.102;5.242;2023-05-18T06:48:28;102594.0;;;16.04;43.14
32452;BME280;45528;52.102;5.242;2023-05-18T06:50:05;102595.0;;;16.05;42.1
32452;BME280;45528;52.102;5.242;2023-05-18T06:53:17;102597.0;;;16.45;42.04
32452;BME280;45528;52.102;5.242;2023-05-18T06:54:53;102600.0;;;16.59;42.24
32452;BME280;45528;52.102;5.242;2023-05-18T06:56:29;102605.0;;;16.68;42.26
32452;BME280;45528;52.102;5.242;2023-05-18T06:59:41;102597.0;;;16.75;40.67
32452;BME280;45528;52.102;5.242;2023-05-18T07:01:18;102595.0;;;16.53;41.07
32452;BME280;45528;52.102;5.242;2023-05-18T07:02:54;102598.0;;;16.43;41.88
32452;BME280;45528;52.102;5.242;2023-05-18T07:06:06;102594.0;;;16.2;41.07
32452;BME280;45528;52.102;5.242;2023-05-18T07:07:42;102596.0;;;16.59;41.34
32452;BME280;45528;52.102;5.242;2023-05-18T07:09:18;102594.0;;;16.54;41.41
32452;BME280;45528;52.102;5.242;2023-05-18T07:12:31;102597.0;;;16.68;41.49
32452;BME280;45528;52.102;5.242;2023-05-18T07:14:07;102603.0;;;16.63;40.96
32452;BME280;45528;52.102;5.242;2023-05-18T07:15:43;102600.0;;;16.31;41.73
32452;BME280;45528;52.102;5.242;2023-05-18T07:17:19;102601.0;;;16.59;41.1
32452;BME280;45528;52.102;5.242;2023-05-18T07:20:32;102600.0;;;16.8;41.16
32452;BME280;45528;52.102;5.242;2023-05-18T07:22:08;102600.0;;;17.06;40.6
32452;BME280;45528;52.102;5.242;2023-05-18T07:23:44;102598.0;;;17.0;40.69
32452;BME280;45528;52.102;5.242;2023-05-18T07:26:56;102602.0;;;17.14;39.81
32452;BME280;45528;52.102;5.242;2023-05-18T07:28:33;102602.0;;;16.86;40.53
32452;BME280;45528;52.102;5.242;2023-05-18T07:30:09;102600.0;;;16.93;40.01
32452;BME280;45528;52.102;5.242;2023-05-18T07:33:22;102594.0;;;17.41;39.53
32452;BME280;45528;52.102;5.242;2023-05-18T07:34:58;102593.0;;;17.75;39.69
32452;BME280;45528;52.102;5.242;2023-05-18T07:36:34;102597.0;;;17.77;39.49
32452;BME280;45528;52.102;5.242;2023-05-18T07:38:11;102601.0;;;17.59;39.04
32452;BME280;45528;52.102;5.242;2023-05-18T07:41:23;102604.0;;;17.59;38.39
32452;BME280;45528;52.102;5.242;2023-05-18T07:42:59;102598.0;;;17.84;38.71
32452;BME280;45528;52.102;5.242;2023-05-18T07:44:35;102611.99999999999;;;18.23;37.5
32452;BME280;45528;52.102;5.242;2023-05-18T07:47:48;102602.0;;;17.7;38.0
32452;BME280;45528;52.102;5.242;2023-05-18T07:49:24;102604.0;;;17.66;37.93
32452;BME280;45528;52.102;5.242;2023-05-18T07:51:00;102613.00000000001;;;17.84;38.4
32452;BME280;45528;52.102;5.242;2023-05-18T07:54:12;102609.99999999999;;;17.68;38.64
32452;BME280;45528;52.102;5.242;2023-05-18T07:55:48;102606.0;;;17.47;38.46
32452;BME280;45528;52.102;5.242;2023-05-18T07:57:25;102611.99999999999;;;17.13;39.17
32452;BME280;45528;52.102;5.242;2023-05-18T08:00:37;102613.00000000001;;;17.62;39.12
32452;BME280;45528;52.102;5.242;2023-05-18T08:02:13;102611.99999999999;;;17.81;38.67
32452;BME280;45528;52.102;5.242;2023-05-18T08:03:49;102608.0;;;18.04;37.9
32452;BME280;45528;52.102;5.242;2023-05-18T08:05:25;102614.00000000001;;;18.12;37.67
32452;BME280;45528;52.102;5.242;2023-05-18T08:08:37;102615.00000000001;;;18.02;38.04
32452;BME280;45528;52.102;5.242;2023-05-18T08:10:13;102613.00000000001;;;17.62;38.25
32452;BME280;45528;52.102;5.242;2023-05-18T08:11:49;102608.99999999999;;;17.71;39.24
32452;BME280;45528;52.102;5.242;2023-05-18T08:15:02;102608.99999999999;;;17.88;38.17
32452;BME280;45528;52.102;5.242;2023-05-18T08:16:38;102618.0;;;17.95;37.46
32452;BME280;45528;52.102;5.242;2023-05-18T08:18:14;102614.00000000001;;;17.8;38.1
32452;BME280;45528;52.102;5.242;2023-05-18T08:21:26;102611.99999999999;;;17.7;38.62
32452;BME280;45528;52.102;5.242;2023-05-18T08:23:02;102613.00000000001;;;17.54;38.99
32452;BME280;45528;52.102;5.242;2023-05-18T08:24:39;102609.99999999999;;;17.5;38.32
32452;BME280;45528;52.102;5.242;2023-05-18T08:27:52;102615.00000000001;;;17.61;38.74
32452;BME280;45528;52.102;5.242;2023-05-18T08:29:28;102609.99999999999;;;17.8;37.9
32452;BME280;45528;52.102;5.242;2023-05-18T08:31:05;102606.0;;;17.91;38.24
32452;BME280;45528;52.102;5.242;2023-05-18T08:32:41;102609.99999999999;;;18.03;38.1
32452;BME280;45528;52.102;5.242;2023-05-18T08:35:54;102615.00000000001;;;18.2;39.08
32452;BME280;45528;52.102;5.242;2023-05-18T08:37:30;102609.99999999999;;;18.0;37.67
32452;BME280;45528;52.102;5.242;2023-05-18T08:39:06;102607.0;;;17.75;38.35
32452;BME280;45528;52.102;5.242;2023-05-18T08:42:50;102608.0;;;17.98;38.17
32452;BME280;45528;52.102;5.242;2023-05-18T08:44:30;102607.0;;;18.23;37.61
32452;BME280;45528;52.102;5.242;2023-05-18T08:46:19;102605.0;;;18.37;37.57
32452;BME280;45528;52.102;5.242;2023-05-18T08:47:59;102609.99999999999;;;18.37;36.82
32452;BME280;45528;52.102;5.242;2023-05-18T08:49:40;102607.0;;;17.91;37.81
32452;BME280;45528;52.102;5.242;2023-05-18T08:53:00;102602.0;;;17.78;37.32
32452;BME280;45528;52.102;5.242;2023-05-18T08:54:37;102604.0;;;17.93;37.42
32452;BME280;45528;52.102;5.242;2023-05-18T08:56:17;102604.0;;;17.86;37.89
32452;BME280;45528;52.102;5.242;2023-05-18T08:57:56;102598.0;;;17.82;37.26
32452;BME280;45528;52.102;5.242;2023-05-18T09:01:16;102601.0;;;17.78;38.07
32452;BME280;45528;52.102;5.242;2023-05-18T09:02:53;102599.0;;;17.97;37.35
32452;BME280;45528;52.102;5.242;2023-05-18T09:04:31;102597.0;;;17.63;38.43
32452;BME280;45528;52.102;5.242;2023-05-18T09:06:07;102593.0;;;17.91;38.42
32452;BME280;45528;52.102;5.242;2023-05-18T09:09:20;102596.0;;;17.89;38.53
32452;BME280;45528;52.102;5.242;2023-05-18T09:11:00;102583.99999999999;;;17.86;36.81
32452;BME280;45528;52.102;5.242;2023-05-18T09:12:38;102586.99999999999;;;17.77;37.22
32452;BME280;45528;52.102;5.242;2023-05-18T09:15:54;102586.99999999999;;;18.5;37.87
32452;BME280;45528;52.102;5.242;2023-05-18T09:17:30;102589.00000000001;;;18.41;36.81
32452;BME280;45528;52.102;5.242;2023-05-18T09:19:06;102581.0;;;18.34;37.28
32452;BME280;45528;52.102;5.242;2023-05-18T09:20:42;102581.0;;;18.0;37.64
32452;BME280;45528;52.102;5.242;2023-05-18T09:23:54;102588.00000000001;;;18.16;36.43
32452;BME280;45528;52.102;5.242;2023-05-18T09:25:31;102581.0;;;18.45;37.49
32452;BME280;45528;52.102;5.242;2023-05-18T09:27:08;102573.0;;;18.82;35.6
32452;BME280;45528;52.102;5.242;2023-05-18T09:30:20;102568.0;;;18.95;36.35
32452;BME280;45528;52.102;5.242;2023-05-18T09:32:01;102571.0;;;18.61;36.33
32452;BME280;45528;52.102;5.242;2023-05-18T09:33:39;102569.0;;;18.39;36.54
32452;BME280;45528;52.102;5.242;2023-05-18T09:36:51;102569.0;;;18.61;37.22
32452;BME280;45528;52.102;5.242;2023-05-18T09:38:27;102570.0;;;18.75;36.67
32452;BME280;45528;52.102;5.242;2023-05-18T09:40:04;102569.0;;;19.23;35.6
32452;BME280;45528;52.102;5.242;2023-05-18T09:41:41;102566.00000000001;;;19.2;36.24
32452;BME280;45528;52.102;5.242;2023-05-18T09:44:54;102569.0;;;18.91;36.12
32452;BME280;45528;52.102;5.242;2023-05-18T09:46:31;102567.0;;;19.16;36.22
32452;BME280;45528;52.102;5.242;2023-05-18T09:48:10;102569.0;;;18.2;36.37
32452;BME280;45528;52.102;5.242;2023-05-18T09:51:22;102563.00000000001;;;18.96;35.87
32452;BME280;45528;52.102;5.242;2023-05-18T09:52:59;102567.0;;;18.86;35.67
32452;BME280;45528;52.102;5.242;2023-05-18T09:54:35;102567.0;;;19.41;36.79
32452;BME280;45528;52.102;5.242;2023-05-18T09:57:49;102558.0;;;19.48;34.96
32452;BME280;45528;52.102;5.242;2023-05-18T09:59:25;102558.0;;;19.96;34.9
32452;BME280;45528;52.102;5.242;2023-05-18T10:01:01;102570.0;;;20.2;34.5
32452;BME280;45528;52.102;5.242;2023-05-18T10:02:39;102567.0;;;19.96;34.39
32452;BME280;45528;52.102;5.242;2023-05-18T10:05:55;102561.99999999999;;;19.96;34.04
32452;BME280;45528;52.102;5.242;2023-05-18T10:07:33;102561.99999999999;;;20.34;34.58
32452;BME280;45528;52.102;5.242;2023-05-18T10:09:13;102558.0;;;19.41;34.42
32452;BME280;45528;52.102;5.242;2023-05-18T10:12:26;102558.0;;;19.18;36.14
32452;BME280;45528;52.102;5.242;2023-05-18T10:14:02;102552.0;;;19.62;35.26
32452;BME280;45528;52.102;5.242;2023-05-18T10:15:45;102555.0;;;19.84;33.94
32452;BME280;45528;52.102;5.242;2023-05-18T10:17:23;102555.0;;;19.61;34.43
32452;BME280;45528;52.102;5.242;2023-05-18T10:20:41;102554.0;;;19.72;33.99
32452;BME280;45528;52.102;5.242;2023-05-18T10:22:19;102546.0;;;19.89;34.53
32452;BME280;45528;52.102;5.242;2023-05-18T10:23:58;102543.0;;;19.86;34.49
32452;BME280;45528;52.102;5.242;2023-05-18T10:25:35;102549.0;;;19.61;35.21
32452;BME280;45528;52.102;5.242;2023-05-18T10:28:55;102548.0;;;19.86;34.15
32452;BME280;45528;52.102;5.242;2023-05-18T10:30:34;102543.0;;;19.91;34.64
32452;BME280;45528;52.102;5.242;2023-05-18T10:32:11;102539.00000000001;;;20.04;34.03
32452;BME280;45528;52.102;5.242;2023-05-18T10:35:27;102542.0;;;19.91;34.22
32452;BME280;45528;52.102;5.242;2023-05-18T10:37:04;102542.0;;;19.89;34.68